Flight Track Log - Related Links

Times and Time Zones

All times are in EDT time to prevent confusion due to time zone crossing. See the N1253W flight status page for this flight to view local times or setup timezone preferences in your user account.

Time Position Orientation Groundspeed Altitude Reporting Facility
EDT Latitude Longitude Course Direction KTS MPH feet Rate Location/Type
Fri 07:49:25 AM 40.0764 -83.0847 336° Northwest 102 117 1,300  Level Indianapolis Center
Fri 07:50:14 AM 40.1006 -83.0986 336° Northwest 153 176 2,700 1,471 Climbing Indianapolis Center
Fri 07:51:07 AM 40.1408 -83.1025 356° North 154 177 3,800 1,315 Climbing Indianapolis Center
Fri 07:51:27 AM 40.1606 -83.1111 342° North 190 219 4,300 1,377 Climbing Indianapolis Center
Fri 07:52:08 AM 40.1922 -83.1208 347° North 177 204 5,200 1,545 Climbing Indianapolis Center
Fri 07:52:33 AM 40.2136 -83.1281 346° North 190 219 6,000 1,452 Climbing Indianapolis Center
Fri 07:53:10 AM 40.2483 -83.1339 353° North 197 227 6,700 1,418 Climbing Indianapolis Center
Fri 07:53:28 AM 40.2700 -83.1319 North 223 257 7,300 1,377 Climbing Indianapolis Center
Fri 07:54:11 AM 40.3083 -83.1033 30° Northeast 240 276 8,100 1,257 Climbing Indianapolis Center
Fri 07:55:13 AM 40.3700 -83.0544 31° Northeast 255 293 9,500 927 Climbing Indianapolis Center
Fri 07:56:14 AM 40.4325 -82.9944 36° Northeast 274 315 10,000 246 Climbing Indianapolis Center
Fri 07:57:15 AM 40.4961 -82.9306 37° Northeast 284 327 10,000 537 Level Indianapolis Center
Fri 07:58:17 AM 40.5586 -82.8603 40° Northeast 261 300 11,100 1,065 Climbing Indianapolis Center
Fri 07:59:19 AM 40.5894 -82.7711 65° Northeast 266 306 12,200 919 Climbing Indianapolis Center
Fri 08:00:21 AM 40.6192 -82.6736 68° East 283 326 13,000 390 Climbing Indianapolis Center
Fri 08:01:22 AM 40.6511 -82.5689 68° East 303 349 13,000  Level Indianapolis Center
Fri 08:02:24 AM 40.6831 -82.4681 67° East 297 342 13,000  Level Indianapolis Center
Fri 08:03:25 AM 40.7147 -82.3678 67° East 295 339 13,000  Level Indianapolis Center
Fri 08:04:27 AM 40.7444 -82.2672 69° East 293 337 13,000  Level Indianapolis Center
Fri 08:04:58 AM 40.7600 -82.2142 69° East 285 328 13,000  Level Cleveland Center
Fri 08:05:33 AM 40.7817 -82.1597 62° Northeast 284 327 13,000  Level Cleveland Center
Fri 08:06:05 AM 40.8133 -82.1278 37° Northeast 265 305 13,000 -300 Level Cleveland Center
Fri 08:06:33 AM 40.8408 -82.1008 37° Northeast 261 300 12,700 -889 Descending Cleveland Center
Fri 08:06:59 AM 40.8683 -82.0822 27° Northeast 266 306 12,200 -1,200 Descending Cleveland Center
Fri 08:07:33 AM 40.9061 -82.0556 28° Northeast 256 295 11,500 -1,082 Descending Cleveland Center
Fri 08:08:00 AM 40.9314 -82.0369 29° Northeast 256 295 11,100 -1,000 Descending Cleveland Center
Fri 08:08:33 AM 40.9692 -82.0103 28° Northeast 256 295 10,500 -1,091 Descending Cleveland Center
Fri 08:09:06 AM 41.0028 -81.9836 31° Northeast 260 299 9,900 -1,000 Descending Cleveland Center
Fri 08:09:33 AM 41.0322 -81.9622 29° Northeast 256 295 9,500 -885 Descending Cleveland Center
Fri 08:10:07 AM 41.0703 -81.9353 28° Northeast 267 307 9,000 -900 Descending Cleveland Center
Fri 08:10:33 AM 41.0911 -81.9194 30° Northeast 256 295 8,600 -1,279 Descending Cleveland Center
Fri 08:11:08 AM 41.1375 -81.8844 30° Northeast 275 316 7,700 -1,400 Descending Cleveland Center
Fri 08:11:33 AM 41.1583 -81.8711 26° Northeast 269 310 7,200 -1,364 Descending Cleveland Center
Fri 08:12:14 AM 41.2111 -81.8333 28° Northeast 279 321 6,200 -1,300 Descending Cleveland Center
Fri 08:12:33 AM 41.2258 -81.8228 28° Northeast 269 310 5,900 -1,180 Descending Cleveland Center
Fri 08:13:15 AM 41.2719 -81.7875 30° Northeast 251 289 5,000 -1,300 Descending Cleveland Center
Fri 08:13:33 AM 41.2867 -81.7769 28° Northeast 256 295 4,600 -1,180 Descending Cleveland Center
Fri 08:14:16 AM 41.3308 -81.7444 29° Northeast 231 266 3,800 -1,200 Descending Cleveland Center
Fri 08:14:33 AM 41.3497 -81.7311 28° Northeast 238 274 3,400 -700 Descending Cleveland Center
Fri 08:15:16 AM 41.3894 -81.7042 27° Northeast 223 257 3,100 -245 Descending Cleveland Center
Fri 08:16:11 AM 41.4294 -81.6606 39° Northeast 222 255 3,000  Descending Cleveland Center
Fri 08:17:11 AM 41.4800 -81.6086 38° Northeast 221 254 3,100  Climbing Cleveland Center
Fri 08:18:12 AM 41.5264 -81.5567 40° Northeast 199 229 3,000 -98 Descending Cleveland Center
Fri 08:19:13 AM 41.5767 -81.5381 15° North 209 241 2,900 -347 Descending Cleveland Center
Fri 08:20:13 AM 41.5681 -81.5767 253° West 95 109 2,300 -545 Descending Cleveland Center
Fri 08:21:14 AM 41.5508 -81.6125 237° Southwest 109 125 1,800 -563 Descending Cleveland Center
Fri 08:22:21 AM 41.5317 -81.6567 240° Southwest 116 133 1,100 -627 Descending Cleveland Center

Login

Don't have an account? Register now (free) for customized features, flight alerts, and more!